sensor_id;sensor_type;location;lat;lon;timestamp;pressure;altitude;pressure_sealevel;temperature;humidity
27202;BME280;14717;46.924;15.474;2023-03-14T00:02:22;96661.06;;;6.14;88.48
27202;BME280;14717;46.924;15.474;2023-03-14T00:04:48;96657.06;;;6.07;88.15
27202;BME280;14717;46.924;15.474;2023-03-14T00:07:13;96653.25;;;6.03;88.06
27202;BME280;14717;46.924;15.474;2023-03-14T00:09:39;96652.00;;;5.95;89.00
27202;BME280;14717;46.924;15.474;2023-03-14T00:12:04;96643.78;;;5.72;89.09
27202;BME280;14717;46.924;15.474;2023-03-14T00:14:31;96623.22;;;5.75;89.90
27202;BME280;14717;46.924;15.474;2023-03-14T00:16:56;96652.94;;;5.86;89.82
27202;BME280;14717;46.924;15.474;2023-03-14T00:19:21;96647.81;;;5.80;89.29
27202;BME280;14717;46.924;15.474;2023-03-14T00:21:47;96651.09;;;5.53;89.96
27202;BME280;14717;46.924;15.474;2023-03-14T00:24:13;96643.47;;;5.50;91.20
27202;BME280;14717;46.924;15.474;2023-03-14T00:26:38;96640.69;;;5.55;91.32
27202;BME280;14717;46.924;15.474;2023-03-14T00:29:03;96651.19;;;5.72;90.05
27202;BME280;14717;46.924;15.474;2023-03-14T00:31:29;96626.28;;;5.68;89.94
27202;BME280;14717;46.924;15.474;2023-03-14T00:33:54;96617.47;;;5.71;90.57
27202;BME280;14717;46.924;15.474;2023-03-14T00:36:20;96613.38;;;5.74;90.82
27202;BME280;14717;46.924;15.474;2023-03-14T00:38:48;96601.88;;;5.95;90.30
27202;BME280;14717;46.924;15.474;2023-03-14T00:41:16;96603.03;;;6.26;89.43
27202;BME280;14717;46.924;15.474;2023-03-14T00:43:42;96599.75;;;6.60;88.39
27202;BME280;14717;46.924;15.474;2023-03-14T00:46:08;96581.50;;;7.01;86.35
27202;BME280;14717;46.924;15.474;2023-03-14T00:48:34;96580.84;;;7.62;84.07
27202;BME280;14717;46.924;15.474;2023-03-14T00:50:59;96577.78;;;8.04;82.49
27202;BME280;14717;46.924;15.474;2023-03-14T00:53:24;96537.06;;;8.41;80.67
27202;BME280;14717;46.924;15.474;2023-03-14T00:55:50;96541.75;;;9.05;77.35
27202;BME280;14717;46.924;15.474;2023-03-14T00:58:17;96554.09;;;9.16;77.10
27202;BME280;14717;46.924;15.474;2023-03-14T01:00:43;96530.25;;;9.12;76.72
27202;BME280;14717;46.924;15.474;2023-03-14T01:03:10;96523.34;;;9.23;76.31
27202;BME280;14717;46.924;15.474;2023-03-14T01:05:35;96535.03;;;9.28;75.71
27202;BME280;14717;46.924;15.474;2023-03-14T01:08:02;96500.09;;;9.37;75.90
27202;BME280;14717;46.924;15.474;2023-03-14T01:10:27;96495.44;;;10.18;73.88
27202;BME280;14717;46.924;15.474;2023-03-14T01:12:53;96504.69;;;10.64;71.92
27202;BME280;14717;46.924;15.474;2023-03-14T01:15:18;96492.81;;;10.80;70.82
27202;BME280;14717;46.924;15.474;2023-03-14T01:17:44;96490.28;;;11.21;69.41
27202;BME280;14717;46.924;15.474;2023-03-14T01:20:12;96476.03;;;11.48;68.43
27202;BME280;14717;46.924;15.474;2023-03-14T01:22:39;96481.31;;;11.98;66.48
27202;BME280;14717;46.924;15.474;2023-03-14T01:25:11;96467.94;;;12.40;64.22
27202;BME280;14717;46.924;15.474;2023-03-14T01:27:37;96454.03;;;12.49;64.00
27202;BME280;14717;46.924;15.474;2023-03-14T01:30:03;96436.19;;;12.58;63.30
27202;BME280;14717;46.924;15.474;2023-03-14T01:32:29;96452.06;;;12.90;62.50
27202;BME280;14717;46.924;15.474;2023-03-14T01:34:55;96425.72;;;12.96;61.93
27202;BME280;14717;46.924;15.474;2023-03-14T01:37:20;96419.06;;;13.09;61.07
27202;BME280;14717;46.924;15.474;2023-03-14T01:39:49;96417.41;;;13.08;61.33
27202;BME280;14717;46.924;15.474;2023-03-14T01:42:15;96392.13;;;12.97;61.80
27202;BME280;14717;46.924;15.474;2023-03-14T01:47:50;96415.25;;;13.13;61.24
27202;BME280;14717;46.924;15.474;2023-03-14T01:50:16;96413.41;;;13.17;61.06
27202;BME280;14717;46.924;15.474;2023-03-14T01:52:46;96415.59;;;13.23;60.86
27202;BME280;14717;46.924;15.474;2023-03-14T01:55:24;96418.03;;;13.25;61.01
27202;BME280;14717;46.924;15.474;2023-03-14T01:57:58;96409.84;;;13.28;60.43
27202;BME280;14717;46.924;15.474;2023-03-14T02:00:25;96399.53;;;13.17;60.96
27202;BME280;14717;46.924;15.474;2023-03-14T02:02:57;96407.28;;;13.12;61.71
27202;BME280;14717;46.924;15.474;2023-03-14T02:05:26;96404.16;;;13.13;61.37
27202;BME280;14717;46.924;15.474;2023-03-14T02:07:55;96402.66;;;13.16;61.76
27202;BME280;14717;46.924;15.474;2023-03-14T02:10:27;96399.53;;;13.17;61.48
27202;BME280;14717;46.924;15.474;2023-03-14T02:12:55;96399.88;;;13.27;61.50
27202;BME280;14717;46.924;15.474;2023-03-14T02:15:22;96400.50;;;13.33;61.14
27202;BME280;14717;46.924;15.474;2023-03-14T02:17:47;96403.50;;;13.40;60.76
27202;BME280;14717;46.924;15.474;2023-03-14T02:22:52;96398.16;;;13.47;60.32
27202;BME280;14717;46.924;15.474;2023-03-14T02:25:30;96393.69;;;13.54;60.09
27202;BME280;14717;46.924;15.474;2023-03-14T02:28:00;96388.13;;;13.54;60.55
27202;BME280;14717;46.924;15.474;2023-03-14T02:30:29;96358.28;;;13.51;60.38
27202;BME280;14717;46.924;15.474;2023-03-14T02:32:58;96368.34;;;13.56;60.29
27202;BME280;14717;46.924;15.474;2023-03-14T02:35:28;96358.38;;;13.66;60.14
27202;BME280;14717;46.924;15.474;2023-03-14T02:37:57;96364.97;;;13.74;59.56
27202;BME280;14717;46.924;15.474;2023-03-14T02:40:25;96380.47;;;13.75;59.27
27202;BME280;14717;46.924;15.474;2023-03-14T02:42:51;96391.00;;;13.69;59.86
27202;BME280;14717;46.924;15.474;2023-03-14T02:47:43;96382.56;;;13.66;60.50
27202;BME280;14717;46.924;15.474;2023-03-14T02:50:15;96375.63;;;13.60;60.62
27202;BME280;14717;46.924;15.474;2023-03-14T02:52:42;96377.47;;;13.56;60.97
27202;BME280;14717;46.924;15.474;2023-03-14T02:55:08;96380.03;;;13.49;60.95
27202;BME280;14717;46.924;15.474;2023-03-14T02:57:34;96388.59;;;13.56;60.80
27202;BME280;14717;46.924;15.474;2023-03-14T03:00:00;96380.94;;;13.53;60.72
27202;BME280;14717;46.924;15.474;2023-03-14T03:02:25;96385.47;;;13.46;61.14
27202;BME280;14717;46.924;15.474;2023-03-14T03:04:51;96386.03;;;13.39;61.52
27202;BME280;14717;46.924;15.474;2023-03-14T03:07:16;96376.56;;;13.40;61.50
27202;BME280;14717;46.924;15.474;2023-03-14T03:09:41;96384.41;;;13.38;62.28
27202;BME280;14717;46.924;15.474;2023-03-14T03:12:07;96382.94;;;13.41;62.12
27202;BME280;14717;46.924;15.474;2023-03-14T03:14:32;96388.34;;;13.37;62.68
27202;BME280;14717;46.924;15.474;2023-03-14T03:16:58;96376.22;;;13.30;63.09
27202;BME280;14717;46.924;15.474;2023-03-14T03:19:23;96380.25;;;13.32;63.36
27202;BME280;14717;46.924;15.474;2023-03-14T03:21:48;96377.47;;;13.32;63.36
27202;BME280;14717;46.924;15.474;2023-03-14T03:24:14;96380.47;;;13.27;63.83
27202;BME280;14717;46.924;15.474;2023-03-14T03:26:39;96373.91;;;13.32;63.62
27202;BME280;14717;46.924;15.474;2023-03-14T03:29:04;96355.88;;;13.38;63.67
27202;BME280;14717;46.924;15.474;2023-03-14T03:31:30;96374.94;;;13.39;63.38
27202;BME280;14717;46.924;15.474;2023-03-14T03:33:56;96378.06;;;13.38;63.46
27202;BME280;14717;46.924;15.474;2023-03-14T03:36:23;96387.41;;;13.33;64.05
27202;BME280;14717;46.924;15.474;2023-03-14T03:38:49;96385.78;;;13.32;63.65
27202;BME280;14717;46.924;15.474;2023-03-14T03:41:15;96381.06;;;13.33;63.95
27202;BME280;14717;46.924;15.474;2023-03-14T03:43:40;96379.44;;;13.32;63.97
27202;BME280;14717;46.924;15.474;2023-03-14T03:46:06;96384.19;;;13.31;63.95
27202;BME280;14717;46.924;15.474;2023-03-14T03:48:32;96404.84;;;13.22;64.75
27202;BME280;14717;46.924;15.474;2023-03-14T03:50:58;96409.16;;;13.19;65.11
27202;BME280;14717;46.924;15.474;2023-03-14T03:53:23;96401.97;;;13.18;64.70
27202;BME280;14717;46.924;15.474;2023-03-14T03:55:49;96399.66;;;13.20;65.32
27202;BME280;14717;46.924;15.474;2023-03-14T03:58:14;96406.00;;;13.21;65.14
27202;BME280;14717;46.924;15.474;2023-03-14T04:00:39;96428.06;;;13.18;65.38
27202;BME280;14717;46.924;15.474;2023-03-14T04:03:05;96427.38;;;13.20;65.13
27202;BME280;14717;46.924;15.474;2023-03-14T04:05:31;96437.78;;;13.23;65.72
27202;BME280;14717;46.924;15.474;2023-03-14T04:07:56;96420.47;;;13.26;65.93
27202;BME280;14717;46.924;15.474;2023-03-14T04:10:22;96414.69;;;13.31;65.92
27202;BME280;14717;46.924;15.474;2023-03-14T04:12:47;96413.31;;;13.49;65.69
27202;BME280;14717;46.924;15.474;2023-03-14T04:15:12;96399.00;;;13.59;65.11
27202;BME280;14717;46.924;15.474;2023-03-14T04:17:38;96401.03;;;13.62;65.56
27202;BME280;14717;46.924;15.474;2023-03-14T04:20:03;96394.13;;;13.68;65.07
27202;BME280;14717;46.924;15.474;2023-03-14T04:22:29;96403.38;;;13.60;65.47
27202;BME280;14717;46.924;15.474;2023-03-14T04:24:55;96406.38;;;13.67;65.64
27202;BME280;14717;46.924;15.474;2023-03-14T04:27:20;96413.19;;;13.69;65.52
27202;BME280;14717;46.924;15.474;2023-03-14T04:29:46;96414.22;;;13.65;66.06
27202;BME280;14717;46.924;15.474;2023-03-14T04:32:11;96411.47;;;13.65;66.12
27202;BME280;14717;46.924;15.474;2023-03-14T04:34:37;96402.78;;;13.78;65.78
27202;BME280;14717;46.924;15.474;2023-03-14T04:37:02;96406.72;;;13.77;65.61
27202;BME280;14717;46.924;15.474;2023-03-14T04:39:27;96404.28;;;13.76;66.21
27202;BME280;14717;46.924;15.474;2023-03-14T04:41:53;96401.50;;;13.88;65.77
27202;BME280;14717;46.924;15.474;2023-03-14T04:44:19;96391.53;;;13.99;65.34
27202;BME280;14717;46.924;15.474;2023-03-14T04:46:44;96386.69;;;13.96;65.73
27202;BME280;14717;46.924;15.474;2023-03-14T04:49:10;96399.41;;;13.97;65.84
27202;BME280;14717;46.924;15.474;2023-03-14T04:51:35;96400.13;;;14.05;65.55
27202;BME280;14717;46.924;15.474;2023-03-14T04:54:00;96400.66;;;14.11;65.80
27202;BME280;14717;46.924;15.474;2023-03-14T04:56:26;96395.94;;;14.11;65.58
27202;BME280;14717;46.924;15.474;2023-03-14T04:58:53;96394.31;;;14.10;65.56
27202;BME280;14717;46.924;15.474;2023-03-14T05:01:18;96399.66;;;14.04;66.12
27202;BME280;14717;46.924;15.474;2023-03-14T05:03:43;96400.66;;;13.99;66.31
27202;BME280;14717;46.924;15.474;2023-03-14T05:06:09;96387.38;;;13.93;66.63
27202;BME280;14717;46.924;15.474;2023-03-14T05:08:34;96389.25;;;13.89;66.93
27202;BME280;14717;46.924;15.474;2023-03-14T05:11:00;96392.72;;;13.86;67.51
27202;BME280;14717;46.924;15.474;2023-03-14T05:13:25;96391.44;;;13.83;67.79
27202;BME280;14717;46.924;15.474;2023-03-14T05:15:51;96387.84;;;13.83;67.89
27202;BME280;14717;46.924;15.474;2023-03-14T05:18:17;96395.38;;;13.82;68.09
27202;BME280;14717;46.924;15.474;2023-03-14T05:20:43;96398.63;;;13.84;68.13
27202;BME280;14717;46.924;15.474;2023-03-14T05:23:09;96400.09;;;13.82;68.60
27202;BME280;14717;46.924;15.474;2023-03-14T05:25:35;96399.88;;;13.75;69.27
27202;BME280;14717;46.924;15.474;2023-03-14T05:28:00;96393.22;;;13.64;69.83
27202;BME280;14717;46.924;15.474;2023-03-14T05:30:26;96386.59;;;13.57;70.70
27202;BME280;14717;46.924;15.474;2023-03-14T05:32:53;96374.50;;;13.49;71.12
27202;BME280;14717;46.924;15.474;2023-03-14T05:35:18;96377.94;;;13.46;71.37
27202;BME280;14717;46.924;15.474;2023-03-14T05:37:43;96384.66;;;13.45;72.20
27202;BME280;14717;46.924;15.474;2023-03-14T05:40:09;96381.41;;;13.43;71.91
27202;BME280;14717;46.924;15.474;2023-03-14T05:42:35;96367.19;;;13.45;72.07
27202;BME280;14717;46.924;15.474;2023-03-14T05:45:00;96369.63;;;13.46;72.54
27202;BME280;14717;46.924;15.474;2023-03-14T05:47:25;96356.91;;;13.45;72.64
27202;BME280;14717;46.924;15.474;2023-03-14T05:49:51;96362.22;;;13.50;72.83
27202;BME280;14717;46.924;15.474;2023-03-14T05:52:16;96367.41;;;13.52;72.88
27202;BME280;14717;46.924;15.474;2023-03-14T05:54:42;96375.75;;;13.52;73.17
27202;BME280;14717;46.924;15.474;2023-03-14T05:57:07;96372.50;;;13.50;73.60
27202;BME280;14717;46.924;15.474;2023-03-14T05:59:32;96373.19;;;13.47;74.02
27202;BME280;14717;46.924;15.474;2023-03-14T06:01:58;96355.31;;;13.44;74.21
27202;BME280;14717;46.924;15.474;2023-03-14T06:04:24;96352.88;;;13.43;74.45
27202;BME280;14717;46.924;15.474;2023-03-14T06:06:49;96328.13;;;13.50;73.81
27202;BME280;14717;46.924;15.474;2023-03-14T06:09:14;96327.19;;;13.58;74.01
27202;BME280;14717;46.924;15.474;2023-03-14T06:11:40;96332.16;;;13.64;74.22
27202;BME280;14717;46.924;15.474;2023-03-14T06:14:05;96344.34;;;13.99;72.31
27202;BME280;14717;46.924;15.474;2023-03-14T06:16:30;96323.59;;;14.20;71.36
27202;BME280;14717;46.924;15.474;2023-03-14T06:18:57;96349.53;;;14.39;70.57
27202;BME280;14717;46.924;15.474;2023-03-14T06:21:22;96360.13;;;14.49;70.02
27202;BME280;14717;46.924;15.474;2023-03-14T06:23:47;96344.47;;;14.29;70.58
27202;BME280;14717;46.924;15.474;2023-03-14T06:26:13;96344.97;;;14.31;70.64
27202;BME280;14717;46.924;15.474;2023-03-14T06:28:38;96347.34;;;14.33;71.10
27202;BME280;14717;46.924;15.474;2023-03-14T06:31:04;96348.63;;;14.35;70.95
27202;BME280;14717;46.924;15.474;2023-03-14T06:33:30;96353.91;;;14.25;71.15
27202;BME280;14717;46.924;15.474;2023-03-14T06:35:55;96361.19;;;14.17;71.96
27202;BME280;14717;46.924;15.474;2023-03-14T06:38:20;96362.56;;;14.23;71.60
27202;BME280;14717;46.924;15.474;2023-03-14T06:40:46;96359.56;;;14.28;71.12
27202;BME280;14717;46.924;15.474;2023-03-14T06:43:11;96357.66;;;14.32;70.78
27202;BME280;14717;46.924;15.474;2023-03-14T06:45:36;96356.91;;;14.47;69.48
27202;BME280;14717;46.924;15.474;2023-03-14T06:48:02;96349.69;;;14.58;68.83
27202;BME280;14717;46.924;15.474;2023-03-14T06:50:28;96354.06;;;14.59;68.70
27202;BME280;14717;46.924;15.474;2023-03-14T06:52:53;96344.91;;;14.86;67.78
27202;BME280;14717;46.924;15.474;2023-03-14T06:55:18;96329.38;;;14.85;67.35
27202;BME280;14717;46.924;15.474;2023-03-14T06:57:44;96336.41;;;14.94;66.64
27202;BME280;14717;46.924;15.474;2023-03-14T07:00:11;96325.53;;;14.89;66.86
27202;BME280;14717;46.924;15.474;2023-03-14T07:02:37;96320.41;;;14.91;66.56
27202;BME280;14717;46.924;15.474;2023-03-14T07:05:02;96323.19;;;14.76;66.94
27202;BME280;14717;46.924;15.474;2023-03-14T07:07:28;96304.19;;;14.78;66.50
27202;BME280;14717;46.924;15.474;2023-03-14T07:09:53;96299.06;;;14.95;66.25
27202;BME280;14717;46.924;15.474;2023-03-14T07:12:18;96301.47;;;14.96;65.14
27202;BME280;14717;46.924;15.474;2023-03-14T07:14:44;96312.00;;;14.88;65.50
27202;BME280;14717;46.924;15.474;2023-03-14T07:17:09;96305.44;;;14.95;65.49
27202;BME280;14717;46.924;15.474;2023-03-14T07:19:34;96331.50;;;15.18;64.66
27202;BME280;14717;46.924;15.474;2023-03-14T07:22:00;96339.34;;;15.01;65.17
27202;BME280;14717;46.924;15.474;2023-03-14T07:24:25;96339.19;;;14.94;64.98
27202;BME280;14717;46.924;15.474;2023-03-14T07:26:50;96356.47;;;14.88;65.85
27202;BME280;14717;46.924;15.474;2023-03-14T07:29:16;96347.59;;;14.82;65.83
27202;BME280;14717;46.924;15.474;2023-03-14T07:31:41;96339.63;;;14.81;66.44
27202;BME280;14717;46.924;15.474;2023-03-14T07:34:06;96316.19;;;14.82;66.16
27202;BME280;14717;46.924;15.474;2023-03-14T07:36:32;96330.84;;;14.94;66.57
27202;BME280;14717;46.924;15.474;2023-03-14T07:38:57;96329.69;;;15.10;66.11
27202;BME280;14717;46.924;15.474;2023-03-14T07:41:22;96326.69;;;15.03;65.56
27202;BME280;14717;46.924;15.474;2023-03-14T07:43:48;96322.22;;;15.14;65.35
27202;BME280;14717;46.924;15.474;2023-03-14T07:46:13;96315.97;;;15.17;65.14
27202;BME280;14717;46.924;15.474;2023-03-14T07:48:39;96291.91;;;15.40;65.49
27202;BME280;14717;46.924;15.474;2023-03-14T07:51:05;96296.56;;;15.51;64.96
27202;BME280;14717;46.924;15.474;2023-03-14T07:53:31;96283.44;;;15.52;65.14
27202;BME280;14717;46.924;15.474;2023-03-14T07:55:56;96298.00;;;15.79;64.38
27202;BME280;14717;46.924;15.474;2023-03-14T07:58:22;96293.16;;;15.95;63.09
27202;BME280;14717;46.924;15.474;2023-03-14T08:00:47;96280.00;;;16.11;62.55
27202;BME280;14717;46.924;15.474;2023-03-14T08:03:13;96274.13;;;16.35;60.92
27202;BME280;14717;46.924;15.474;2023-03-14T08:05:38;96274.16;;;16.76;61.26
27202;BME280;14717;46.924;15.474;2023-03-14T08:08:04;96263.16;;;16.83;60.13
27202;BME280;14717;46.924;15.474;2023-03-14T08:10:30;96259.22;;;17.09;58.65
27202;BME280;14717;46.924;15.474;2023-03-14T08:12:59;96257.97;;;17.07;58.02
27202;BME280;14717;46.924;15.474;2023-03-14T08:15:26;96249.13;;;16.79;58.71
27202;BME280;14717;46.924;15.474;2023-03-14T08:17:53;96249.94;;;16.80;58.13
27202;BME280;14717;46.924;15.474;2023-03-14T08:20:19;96257.91;;;17.03;58.18
27202;BME280;14717;46.924;15.474;2023-03-14T08:22:45;96241.59;;;17.05;57.08
27202;BME280;14717;46.924;15.474;2023-03-14T08:25:10;96231.38;;;17.13;57.19
27202;BME280;14717;46.924;15.474;2023-03-14T08:27:36;96220.09;;;17.06;56.33
27202;BME280;14717;46.924;15.474;2023-03-14T08:30:04;96237.47;;;16.74;57.58
27202;BME280;14717;46.924;15.474;2023-03-14T08:32:30;96247.16;;;16.80;58.29
27202;BME280;14717;46.924;15.474;2023-03-14T08:34:55;96249.56;;;16.81;58.68
27202;BME280;14717;46.924;15.474;2023-03-14T08:37:21;96252.22;;;16.74;57.80
27202;BME280;14717;46.924;15.474;2023-03-14T08:39:46;96240.50;;;16.65;58.68
27202;BME280;14717;46.924;15.474;2023-03-14T08:42:11;96240.38;;;16.59;58.19
27202;BME280;14717;46.924;15.474;2023-03-14T08:44:37;96229.34;;;16.65;58.19
27202;BME280;14717;46.924;15.474;2023-03-14T08:47:02;96241.22;;;16.62;57.83
27202;BME280;14717;46.924;15.474;2023-03-14T08:49:28;96234.91;;;16.65;57.59
27202;BME280;14717;46.924;15.474;2023-03-14T08:51:53;96223.69;;;16.62;57.72
27202;BME280;14717;46.924;15.474;2023-03-14T08:54:18;96240.31;;;16.77;57.34
27202;BME280;14717;46.924;15.474;2023-03-14T08:56:44;96238.13;;;16.67;56.99
27202;BME280;14717;46.924;15.474;2023-03-14T08:59:09;96251.78;;;16.72;57.23
27202;BME280;14717;46.924;15.474;2023-03-14T09:01:36;96242.56;;;16.68;57.77
27202;BME280;14717;46.924;15.474;2023-03-14T09:04:01;96244.38;;;16.61;58.53
27202;BME280;14717;46.924;15.474;2023-03-14T09:06:26;96239.63;;;16.62;58.56
27202;BME280;14717;46.924;15.474;2023-03-14T09:08:52;96244.72;;;16.78;57.95
27202;BME280;14717;46.924;15.474;2023-03-14T09:11:17;96228.50;;;17.32;56.88
27202;BME280;14717;46.924;15.474;2023-03-14T09:13:43;96232.75;;;17.48;55.66
27202;BME280;14717;46.924;15.474;2023-03-14T09:16:09;96232.38;;;17.49;55.18
27202;BME280;14717;46.924;15.474;2023-03-14T09:18:35;96237.75;;;17.36;54.09
27202;BME280;14717;46.924;15.474;2023-03-14T09:21:00;96238.09;;;17.31;54.57
27202;BME280;14717;46.924;15.474;2023-03-14T09:23:25;96233.03;;;17.40;55.00
27202;BME280;14717;46.924;15.474;2023-03-14T09:25:55;96233.66;;;17.30;53.20
27202;BME280;14717;46.924;15.474;2023-03-14T09:28:21;96233.78;;;17.37;54.18
27202;BME280;14717;46.924;15.474;2023-03-14T09:30:46;96252.03;;;17.31;53.24
27202;BME280;14717;46.924;15.474;2023-03-14T09:33:15;96243.56;;;17.24;52.50
27202;BME280;14717;46.924;15.474;2023-03-14T09:35:40;96236.63;;;17.18;51.85
27202;BME280;14717;46.924;15.474;2023-03-14T09:38:05;96241.94;;;17.23;52.06
27202;BME280;14717;46.924;15.474;2023-03-14T09:40:33;96238.28;;;17.19;52.04
27202;BME280;14717;46.924;15.474;2023-03-14T09:42:59;96229.31;;;17.10;51.46
27202;BME280;14717;46.924;15.474;2023-03-14T09:45:32;96222.56;;;17.11;51.83
27202;BME280;14717;46.924;15.474;2023-03-14T09:47:58;96225.88;;;16.94;51.67
27202;BME280;14717;46.924;15.474;2023-03-14T09:50:26;96221.03;;;16.91;51.54
27202;BME280;14717;46.924;15.474;2023-03-14T09:53:03;96210.31;;;16.93;51.38
27202;BME280;14717;46.924;15.474;2023-03-14T09:55:29;96237.03;;;16.94;51.11
27202;BME280;14717;46.924;15.474;2023-03-14T09:58:00;96221.47;;;16.93;51.36
27202;BME280;14717;46.924;15.474;2023-03-14T10:00:30;96217.06;;;16.92;50.97
27202;BME280;14717;46.924;15.474;2023-03-14T10:03:09;96224.06;;;17.05;51.64
27202;BME280;14717;46.924;15.474;2023-03-14T10:05:41;96229.38;;;17.13;50.89
27202;BME280;14717;46.924;15.474;2023-03-14T10:08:10;96226.66;;;17.17;50.33
27202;BME280;14717;46.924;15.474;2023-03-14T10:10:36;96222.41;;;17.23;50.09
27202;BME280;14717;46.924;15.474;2023-03-14T10:13:14;96218.97;;;17.33;49.26
27202;BME280;14717;46.924;15.474;2023-03-14T10:15:40;96213.22;;;17.48;49.01
27202;BME280;14717;46.924;15.474;2023-03-14T10:18:10;96228.28;;;17.98;48.78
27202;BME280;14717;46.924;15.474;2023-03-14T10:20:40;96237.38;;;18.18;47.55
27202;BME280;14717;46.924;15.474;2023-03-14T10:23:22;96249.81;;;18.24;48.01
27202;BME280;14717;46.924;15.474;2023-03-14T10:26:14;96246.56;;;18.51;47.42
27202;BME280;14717;46.924;15.474;2023-03-14T10:28:50;96227.66;;;18.77;47.23
27202;BME280;14717;46.924;15.474;2023-03-14T10:31:16;96223.78;;;18.88;46.05
27202;BME280;14717;46.924;15.474;2023-03-14T10:33:42;96221.50;;;19.01;46.71
27202;BME280;14717;46.924;15.474;2023-03-14T10:36:24;96212.75;;;19.06;45.38
27202;BME280;14717;46.924;15.474;2023-03-14T10:38:57;96209.84;;;19.38;44.72
27202;BME280;14717;46.924;15.474;2023-03-14T10:41:24;96245.44;;;19.34;41.87
27202;BME280;14717;46.924;15.474;2023-03-14T10:43:53;96245.06;;;19.39;42.72
27202;BME280;14717;46.924;15.474;2023-03-14T10:46:23;96258.81;;;19.12;41.30
27202;BME280;14717;46.924;15.474;2023-03-14T10:48:51;96252.63;;;18.96;42.78
27202;BME280;14717;46.924;15.474;2023-03-14T10:53:43;96253.88;;;18.62;42.05
27202;BME280;14717;46.924;15.474;2023-03-14T10:56:14;96257.09;;;18.64;41.81
27202;BME280;14717;46.924;15.474;2023-03-14T10:58:42;96259.38;;;18.52;40.98
27202;BME280;14717;46.924;15.474;2023-03-14T11:07:05;96270.78;;;18.40;39.59
27202;BME280;14717;46.924;15.474;2023-03-14T11:12:37;96277.09;;;18.04;40.37
27202;BME280;14717;46.924;15.474;2023-03-14T11:20:51;96286.84;;;17.62;40.31
27202;BME280;14717;46.924;15.474;2023-03-14T11:23:32;96278.28;;;17.78;40.87
27202;BME280;14717;46.924;15.474;2023-03-14T11:28:58;96281.41;;;18.24;39.56
27202;BME280;14717;46.924;15.474;2023-03-14T11:31:33;96285.78;;;18.25;39.84
27202;BME280;14717;46.924;15.474;2023-03-14T11:34:22;96264.47;;;18.14;39.92
27202;BME280;14717;46.924;15.474;2023-03-14T11:37:07;96274.25;;;18.30;40.08
27202;BME280;14717;46.924;15.474;2023-03-14T11:39:41;96259.91;;;18.32;39.79
27202;BME280;14717;46.924;15.474;2023-03-14T11:42:12;96261.16;;;18.34;39.12
27202;BME280;14717;46.924;15.474;2023-03-14T11:44:40;96253.50;;;18.31;39.25
27202;BME280;14717;46.924;15.474;2023-03-14T11:47:22;96254.66;;;18.27;39.78
27202;BME280;14717;46.924;15.474;2023-03-14T11:50:05;96247.72;;;18.17;39.80
27202;BME280;14717;46.924;15.474;2023-03-14T11:55:21;96250.06;;;18.12;40.39
27202;BME280;14717;46.924;15.474;2023-03-14T11:57:51;96227.66;;;18.41;40.95
27202;BME280;14717;46.924;15.474;2023-03-14T12:00:20;96228.41;;;18.38;39.67
27202;BME280;14717;46.924;15.474;2023-03-14T12:03:29;96238.06;;;18.40;40.30
27202;BME280;14717;46.924;15.474;2023-03-14T12:08:41;96215.56;;;18.33;41.05
27202;BME280;14717;46.924;15.474;2023-03-14T12:11:18;96223.78;;;18.16;40.90
27202;BME280;14717;46.924;15.474;2023-03-14T12:13:49;96234.81;;;18.06;41.20
27202;BME280;14717;46.924;15.474;2023-03-14T12:16:35;96245.06;;;17.98;41.74
27202;BME280;14717;46.924;15.474;2023-03-14T12:19:36;96236.41;;;18.07;42.11
27202;BME280;14717;46.924;15.474;2023-03-14T12:24:38;96250.03;;;17.83;42.71
27202;BME280;14717;46.924;15.474;2023-03-14T12:27:13;96263.44;;;17.70;44.03
27202;BME280;14717;46.924;15.474;2023-03-14T12:30:00;96249.50;;;17.74;44.64
27202;BME280;14717;46.924;15.474;2023-03-14T12:32:26;96241.75;;;18.19;44.01
27202;BME280;14717;46.924;15.474;2023-03-14T12:34:51;96237.06;;;17.97;44.06
27202;BME280;14717;46.924;15.474;2023-03-14T12:37:30;96242.06;;;17.55;44.65
27202;BME280;14717;46.924;15.474;2023-03-14T12:40:13;96235.22;;;17.53;44.88
27202;BME280;14717;46.924;15.474;2023-03-14T12:42:51;96237.44;;;17.41;44.73
27202;BME280;14717;46.924;15.474;2023-03-14T12:45:28;96244.31;;;17.21;46.05
27202;BME280;14717;46.924;15.474;2023-03-14T12:48:23;96242.75;;;17.01;46.13
27202;BME280;14717;46.924;15.474;2023-03-14T12:51:02;96235.50;;;17.19;46.29
27202;BME280;14717;46.924;15.474;2023-03-14T12:53:38;96236.88;;;17.32;45.22
27202;BME280;14717;46.924;15.474;2023-03-14T12:56:25;96240.31;;;17.22;46.02
27202;BME280;14717;46.924;15.474;2023-03-14T13:02:22;96257.75;;;16.93;46.23
27202;BME280;14717;46.924;15.474;2023-03-14T13:04:50;96246.19;;;16.72;46.92
27202;BME280;14717;46.924;15.474;2023-03-14T13:10:29;96263.59;;;16.25;48.12
27202;BME280;14717;46.924;15.474;2023-03-14T13:17:51;96254.78;;;16.23;48.05
27202;BME280;14717;46.924;15.474;2023-03-14T13:20:23;96241.06;;;16.15;47.97
27202;BME280;14717;46.924;15.474;2023-03-14T13:22:49;96241.84;;;16.15;48.20
27202;BME280;14717;46.924;15.474;2023-03-14T13:25:16;96233.59;;;16.18;48.88
27202;BME280;14717;46.924;15.474;2023-03-14T13:27:43;96243.53;;;16.19;47.93
27202;BME280;14717;46.924;15.474;2023-03-14T13:30:29;96243.66;;;16.23;48.07
27202;BME280;14717;46.924;15.474;2023-03-14T13:33:03;96238.81;;;16.20;48.00
27202;BME280;14717;46.924;15.474;2023-03-14T13:35:39;96242.69;;;16.16;47.97
27202;BME280;14717;46.924;15.474;2023-03-14T13:38:17;96239.63;;;16.20;48.31
27202;BME280;14717;46.924;15.474;2023-03-14T13:40:43;96242.84;;;16.22;48.38
27202;BME280;14717;46.924;15.474;2023-03-14T13:43:18;96239.81;;;16.31;48.05